KSXS

Shell AHP Heliport

Fort Rucker, Alabama, USA
METAR KSXS 200458Z AUTO 33005KT 10SM CLR 27/21 A2997 RMK AO2 SLP146 T02720214
Observed Flight Rules
Jun-20 @ 04:58 UTC (41 minutes ago) Visual Flight Rules
Wind Visibility Clouds
330° at 5 knots 10 miles
  • Clear skies
Temperatures Readings
Current 27°C / 81°F
Dewpoint 21°C / 70°F
Humidity 70%
Altimeter 29.97" Hg
Pressure 1014.6 hPa
Elevation 122
METAR KSXS 200458Z AUTO 33005KT 10SM CLR 27/21 A2997 RMK AO2 SLP146 T02720214
Observed Flight Rules
Jun-20 @ 04:58 UTC
(41 minutes ago)
VFR
Wind Visibility
330° at 5 knots 10 miles
Clouds
  • Clear skies
Temperature Dewpoint
27°C / 81°F 21°C / 70°F
Humidity Altimeter Pressure
70% 29.97" Hg 1014.6 hPa